Weather at LOWW

Observation Time:
Raw: LOWW 022250Z 30004KT CAVOK 18/13 Q1021 NOSIG

Local Time

UTC Time